RJGGRJOM

Guest
Details From RJGG - CHUBU CENTRAIR INTL
To RJOM - MATSUYAMA
Flight Number -
Tags generated
Created
Modified
Stats Distance 213 nm / 394 km
Max Altitude 24,200 ft / 7,376 m
Waypoints 4
Social Downloads 0
Likes 0
Share VATSIM

Download

Looking for another format? Having issues loading an existing format? Contact us
Advertisement - Login to hide

Notes

Basic altitude profile: - Ascent Rate: 2500ft/min - Ascent Speed: 250kts - Cruise Altitude: 35000ft - Cruise Speed: 420kts - Descent Rate: 1500ft/min - Descent Speed: 250kts Options: - Use NATs: yes - Use PACOTS: yes - Use low airways: yes - Use high airways: yes

Route

RJGG PROOF V17 MIZKI RJOM

ID Type Via Altitude Latitude Longitude Leg Dist Tot Dist Heading (true) Name
O RJGG APT - 0 ft / 0 m 34.85841˚ 136.80541˚ - 0 nm - CHUBU CENTRAIR INTL
PROOF FIX - 24,200 ft / 7,376 m 34.38135˚ 134.87303˚ 99 nm 99 nm 254° / 253° -
MIZKI FIX V17 (AWY-HI) 20,200 ft / 6,157 m 34.30956˚ 134.50730˚ 18 nm 118 nm 257° / 257° -
O RJOM APT - 0 ft / 0 m 33.82726˚ 132.69963˚ 94 nm 212 nm 253° / 252° MATSUYAMA

Altitude Profile

Advertisement - Login to hide

Weather


0- 5 10 15 20 25 30 35+ Temperature / ° C

Clouds and Precipitation
Forecast for 2017-12-17 00:00 UTC. Updated 2 hours ago

Ground ~20,000 ft ~40,000 ft Winds

RJGG

Details ICAO RJGG (NGO)
Name CHUBU CENTRAIR INTL
Region Japan
Timezone Asia/Tokyo (UTC+9.0)
Stats Elevation 15 ft / 5 m (AMSL)
Location 34.858414° 136.805408°
Runways 1
Magnetic Variation 7.581° W

METAR

RJGG 162100Z 28026KT 9999 FEW020 SCT040 05/M02 Q1016 NOSIG

Decode

TAF

TAF RJGG 161708Z 1618/1800 29024KT 9999 FEW020 SCT050 BECMG 1709/1712 28010KT

Decode

Departure Runways

ID Width Length Bearing (true) Bearing (mag) Surface Threshold Offset Overrun Length
18 197 ft / 60 m 11,511 ft / 3,509 m 168.81° 176.39° Asphalt 0 ft / 0 m 197 ft / 60 m
36 197 ft / 60 m 11,511 ft / 3,509 m 348.81° 356.39° Asphalt 0 ft / 0 m 197 ft / 60 m

RJOM

Details ICAO RJOM (MYJ)
Name MATSUYAMA
Region Japan
Timezone Asia/Tokyo (UTC+9.0)
Stats Elevation 25 ft / 8 m (AMSL)
Location 33.827257° 132.699631°
Runways 1
Magnetic Variation 7.514° W

METAR

Not found

TAF

TAF RJOM 161707Z 1618/1800 29017KT 9999 FEW025 BKN060

Decode

Destination Runways

ID Width Length Bearing (true) Bearing (mag) Surface Threshold Offset Overrun Length
14 150 ft / 46 m 8,203 ft / 2,500 m 130.67° 138.18° Asphalt 0 ft / 0 m 206 ft / 63 m
32 150 ft / 46 m 8,203 ft / 2,500 m 310.68° 318.19° Asphalt 0 ft / 0 m 195 ft / 59 m

Popular Alternatives